Terminal Aerodrome Forecast
Issued by NWS

Home | Current Version | Previous Version | Text Only | Print | Product List | Glossary On
Versions: 1 2 3 4 5 6 7 8 9 10 11 12 13 14 15 16 17 18
000
FTUS45 KREV 211740
TAFRNO
TAF
KRNO 211740Z 2118/2218 VRB05KT 2SM -SNRA BR OVC014
     FM211900 25010G18KT 6SM -SHSN SCT020 BKN035
     FM220100 26012G19KT 4SM -SN FEW010 BKN020
     FM220400 30009KT P6SM VCSH SCT020 BKN040
     FM220900 35006KT P6SM BKN060=

USA.gov is the U.S. government's official web portal to all federal, state and local government web resources and services.